createdAt,value
2017-12-10T00:02:01.282Z,31.20
2017-12-10T00:04:28.794Z,18.52
2017-12-10T00:06:56.322Z,22.37
2017-12-10T00:09:23.806Z,20.00
2017-12-10T00:11:52.650Z,22.73
2017-12-10T00:14:20.308Z,20.52
2017-12-10T00:16:48.094Z,25.00
2017-12-10T00:19:16.362Z,24.60
2017-12-10T00:21:44.677Z,20.85
2017-12-10T00:24:12.933Z,21.02
2017-12-10T00:26:40.416Z,26.90
2017-12-10T00:29:07.910Z,18.90
2017-12-10T00:31:35.406Z,25.42
2017-12-10T00:34:03.049Z,25.05
2017-12-10T00:36:30.546Z,31.77
2017-12-10T00:38:58.795Z,25.85
2017-12-10T00:41:26.280Z,34.75
2017-12-10T00:43:54.570Z,30.50
2017-12-10T00:46:22.046Z,30.88
2017-12-10T00:48:49.523Z,38.10
2017-12-10T00:51:17.043Z,34.85
2017-12-10T00:53:44.562Z,31.35
2017-12-10T00:56:12.230Z,28.48
2017-12-10T00:58:39.718Z,24.55
2017-12-10T01:01:07.206Z,29.83
2017-12-10T01:03:34.693Z,31.37
2017-12-10T01:06:02.196Z,34.40
2017-12-10T01:08:29.683Z,27.90
2017-12-10T01:10:57.182Z,33.53
2017-12-10T01:13:24.693Z,30.35
2017-12-10T01:15:52.548Z,33.83
2017-12-10T01:18:20.040Z,32.55
2017-12-10T01:20:48.197Z,29.10
2017-12-10T01:23:15.678Z,31.12
2017-12-10T01:25:43.158Z,31.10
2017-12-10T01:28:10.661Z,31.50
2017-12-10T01:30:38.145Z,32.10
2017-12-10T01:33:05.633Z,29.00
2017-12-10T01:35:33.195Z,34.97
2017-12-10T01:38:00.665Z,33.50
2017-12-10T01:40:28.313Z,32.60
2017-12-10T01:42:55.810Z,31.45
2017-12-10T01:45:23.297Z,32.03
2017-12-10T01:47:50.786Z,30.20
2017-12-10T01:50:19.244Z,33.42
2017-12-10T01:52:46.806Z,27.60
2017-12-10T01:55:14.286Z,27.95
2017-12-10T01:57:41.798Z,30.00
2017-12-10T02:00:09.287Z,33.25
2017-12-10T02:02:36.762Z,27.80
2017-12-10T02:05:05.434Z,37.55
2017-12-10T02:07:32.921Z,32.72
2017-12-10T02:10:01.183Z,32.85
2017-12-10T02:12:28.681Z,30.90
2017-12-10T02:14:56.172Z,37.42
2017-12-10T02:17:23.658Z,31.30
2017-12-10T02:19:51.160Z,35.83
2017-12-10T02:22:18.826Z,32.97
2017-12-10T02:24:46.309Z,38.60
2017-12-10T02:27:14.146Z,33.78
2017-12-10T02:29:41.696Z,35.17
2017-12-10T02:32:09.198Z,34.97
2017-12-10T02:34:37.447Z,38.53
2017-12-10T02:37:05.578Z,37.28
2017-12-10T02:39:33.996Z,31.75
2017-12-10T02:42:01.686Z,35.88
2017-12-10T02:44:29.169Z,36.40
2017-12-10T02:46:56.683Z,33.47
2017-12-10T02:49:24.166Z,29.37
2017-12-10T02:51:52.717Z,30.10
2017-12-10T02:54:21.054Z,28.05
2017-12-10T02:56:50.942Z,23.90
2017-12-10T02:59:19.263Z,26.10
2017-12-10T03:01:47.722Z,31.33
2017-12-10T03:04:15.815Z,28.50
2017-12-10T03:06:45.348Z,22.65
2017-12-10T03:09:13.710Z,27.87
2017-12-10T03:11:41.194Z,25.75
2017-12-10T03:14:08.673Z,30.45
2017-12-10T03:16:36.182Z,32.42
2017-12-10T03:19:03.668Z,25.17
2017-12-10T03:21:31.149Z,28.45
2017-12-10T03:23:58.658Z,24.73
2017-12-10T03:26:26.170Z,24.85
2017-12-10T03:28:54.422Z,23.48
2017-12-10T03:31:21.922Z,21.25
2017-12-10T03:33:49.410Z,29.15
2017-12-10T03:36:16.912Z,24.42
2017-12-10T03:38:44.420Z,20.00
2017-12-10T03:41:12.674Z,22.30
2017-12-10T03:43:40.209Z,19.52
2017-12-10T03:46:07.947Z,18.80
2017-12-10T03:48:35.428Z,21.08
2017-12-10T03:51:03.133Z,20.10
2017-12-10T03:53:30.681Z,17.98
2017-12-10T03:55:58.166Z,19.77
2017-12-10T03:58:25.654Z,18.70
2017-12-10T04:00:53.155Z,17.08
2017-12-10T04:03:20.630Z,16.20
2017-12-10T04:05:48.877Z,25.00
2017-12-10T04:08:16.700Z,16.52
2017-12-10T04:10:44.236Z,14.80
2017-12-10T04:13:12.536Z,16.48
2017-12-10T04:15:40.103Z,14.23
2017-12-10T04:18:07.583Z,17.10
2017-12-10T04:20:35.070Z,16.12
2017-12-10T04:23:02.714Z,16.58
2017-12-10T04:25:30.230Z,14.93
2017-12-10T04:27:57.941Z,11.93
2017-12-10T04:30:25.509Z,16.62
2017-12-10T04:32:52.997Z,33.05
2017-12-10T04:35:21.253Z,18.70
2017-12-10T04:37:48.759Z,16.30
2017-12-10T04:40:16.257Z,12.20
2017-12-10T04:42:43.742Z,12.70
2017-12-10T04:45:12.021Z,12.02
2017-12-10T04:47:40.281Z,15.88
2017-12-10T04:50:08.596Z,16.37
2017-12-10T04:52:36.774Z,11.20
2017-12-10T04:55:05.162Z,13.23
2017-12-10T04:57:32.637Z,19.12
2017-12-10T05:00:00.150Z,12.30
2017-12-10T05:02:27.681Z,22.13
2017-12-10T05:04:55.131Z,22.23
2017-12-10T05:07:22.630Z,24.33
2017-12-10T05:09:50.134Z,11.30
2017-12-10T05:12:18.217Z,17.30
2017-12-10T05:14:47.201Z,16.67
2017-12-10T05:17:14.881Z,20.33
2017-12-10T05:19:42.418Z,12.50
2017-12-10T05:22:10.663Z,16.30
2017-12-10T05:24:38.138Z,14.85
2017-12-10T05:27:05.618Z,16.12
2017-12-10T05:29:33.121Z,17.08
2017-12-10T05:32:01.263Z,13.85
2017-12-10T05:34:28.900Z,12.77
2017-12-10T05:36:56.394Z,12.10
2017-12-10T05:39:23.882Z,12.68
2017-12-10T05:41:51.487Z,14.60
2017-12-10T05:44:19.798Z,18.10
2017-12-10T05:46:48.077Z,10.40
2017-12-10T05:49:16.322Z,8.73
2017-12-10T05:51:43.829Z,10.00
2017-12-10T05:54:11.311Z,11.98
2017-12-10T05:56:38.793Z,16.45
2017-12-10T05:59:06.291Z,11.35
2017-12-10T06:01:34.540Z,9.82
2017-12-10T06:04:02.018Z,12.70
2017-12-10T06:06:30.285Z,10.40
2017-12-10T06:08:57.767Z,13.68
2017-12-10T06:11:26.022Z,8.75
2017-12-10T06:13:53.537Z,13.60
2017-12-10T06:16:21.018Z,13.48
2017-12-10T06:18:49.293Z,9.35
2017-12-10T06:21:16.854Z,7.90
2017-12-10T06:23:44.334Z,8.63
2017-12-10T06:26:12.678Z,11.73
2017-12-10T06:28:40.298Z,6.72
2017-12-10T06:31:07.786Z,9.93
2017-12-10T06:33:35.262Z,9.27
2017-12-10T06:36:03.416Z,5.80
2017-12-10T06:38:31.030Z,11.02
2017-12-10T06:41:01.195Z,13.85
2017-12-10T06:43:28.889Z,9.98
2017-12-10T06:45:56.370Z,11.55
2017-12-10T06:48:23.848Z,10.32
2017-12-10T06:50:52.127Z,10.55
2017-12-10T06:53:21.178Z,5.55
2017-12-10T06:55:48.658Z,10.35
2017-12-10T06:58:16.942Z,6.32
2017-12-10T07:00:45.182Z,9.40
2017-12-10T07:03:12.666Z,6.97
2017-12-10T07:05:41.995Z,6.70
2017-12-10T07:08:10.027Z,7.70
2017-12-10T07:10:39.617Z,6.00
2017-12-10T07:13:07.559Z,10.55
2017-12-10T07:15:35.407Z,7.75
2017-12-10T07:18:03.665Z,7.97
2017-12-10T07:20:32.046Z,6.90
2017-12-10T07:22:59.570Z,7.28
2017-12-10T07:25:28.726Z,5.68
2017-12-10T07:27:56.610Z,4.75
2017-12-10T07:30:24.098Z,9.23
2017-12-10T07:32:52.348Z,7.70
2017-12-10T07:35:20.574Z,6.47
2017-12-10T07:37:48.110Z,7.50
2017-12-10T07:40:15.591Z,6.35
2017-12-10T07:42:43.126Z,9.27
2017-12-10T07:45:10.611Z,9.85
2017-12-10T07:47:38.114Z,8.27
2017-12-10T07:50:05.772Z,8.80
2017-12-10T07:52:33.309Z,6.75
2017-12-10T07:55:01.562Z,5.40
2017-12-10T07:57:31.150Z,7.50
2017-12-10T07:59:59.250Z,4.95
2017-12-10T08:02:27.818Z,5.90
2017-12-10T08:04:56.415Z,7.03
2017-12-10T08:07:24.439Z,5.78
2017-12-10T08:09:51.976Z,5.70
2017-12-10T08:12:19.489Z,7.37
2017-12-10T08:14:46.981Z,6.90
2017-12-10T08:17:15.228Z,8.15
2017-12-10T08:19:43.003Z,10.93
2017-12-10T08:22:10.799Z,6.40
2017-12-10T08:24:39.899Z,10.70
2017-12-10T08:27:07.407Z,7.47
2017-12-10T08:29:35.211Z,5.97
2017-12-10T08:32:02.709Z,7.22
2017-12-10T08:34:31.855Z,6.90
2017-12-10T08:37:00.106Z,9.55
2017-12-10T08:39:27.598Z,8.40
2017-12-10T08:41:56.760Z,11.07
2017-12-10T08:44:24.322Z,5.12
2017-12-10T08:46:52.085Z,6.62
2017-12-10T08:49:19.684Z,8.20
2017-12-10T08:51:47.116Z,5.37
2017-12-10T08:54:15.378Z,5.87
2017-12-10T08:56:43.783Z,8.40
2017-12-10T08:59:12.034Z,7.57
2017-12-10T09:01:39.511Z,5.57
2017-12-10T09:04:07.789Z,5.70
2017-12-10T09:06:36.094Z,5.93
2017-12-10T09:09:03.581Z,6.43
2017-12-10T09:11:31.264Z,4.72
2017-12-10T09:13:58.750Z,4.62
2017-12-10T09:16:27.122Z,4.70
2017-12-10T09:18:54.669Z,5.47
2017-12-10T09:21:22.193Z,4.93
2017-12-10T09:23:49.697Z,3.53
2017-12-10T09:26:17.196Z,6.25
2017-12-10T09:28:44.676Z,6.70
2017-12-10T09:31:12.156Z,7.05
2017-12-10T09:33:39.654Z,3.72
2017-12-10T09:36:07.899Z,3.65
2017-12-10T09:38:35.370Z,8.75
2017-12-10T09:41:03.654Z,7.93
2017-12-10T09:43:31.910Z,5.97
2017-12-10T09:45:59.417Z,3.95
2017-12-10T09:48:26.938Z,3.50
2017-12-10T09:50:54.424Z,3.12
2017-12-10T09:53:21.902Z,4.28
2017-12-10T09:55:49.390Z,4.03
2017-12-10T09:58:16.870Z,3.20
2017-12-10T10:00:44.350Z,3.62
2017-12-10T10:03:12.625Z,4.05
2017-12-10T10:05:40.877Z,6.25
2017-12-10T10:08:08.359Z,4.05
2017-12-10T10:10:36.617Z,3.97
2017-12-10T10:13:04.175Z,3.95
2017-12-10T10:15:32.323Z,7.45
2017-12-10T10:17:59.922Z,5.50
2017-12-10T10:20:28.162Z,4.80
2017-12-10T10:22:55.638Z,4.12
2017-12-10T10:25:23.154Z,3.50
2017-12-10T10:27:50.923Z,3.35
2017-12-10T10:30:18.642Z,4.97
2017-12-10T10:32:46.934Z,3.17
2017-12-10T10:35:14.422Z,14.15
2017-12-10T10:37:41.898Z,2.65
2017-12-10T10:40:10.331Z,2.60
2017-12-10T10:42:38.592Z,2.40
2017-12-10T10:45:06.271Z,2.92
2017-12-10T10:47:33.817Z,3.00
2017-12-10T10:50:02.083Z,2.67
2017-12-10T10:52:29.572Z,2.95
2017-12-10T10:54:57.110Z,1.65
2017-12-10T10:57:24.596Z,2.97
2017-12-10T10:59:52.090Z,2.40
2017-12-10T11:02:19.587Z,2.42
2017-12-10T11:04:47.861Z,2.28
2017-12-10T11:07:16.131Z,2.50
2017-12-10T11:09:43.632Z,3.45
2017-12-10T11:12:11.123Z,2.47
2017-12-10T11:14:38.686Z,3.15
2017-12-10T11:17:06.499Z,1.60
2017-12-10T11:19:34.003Z,1.77
2017-12-10T11:22:02.078Z,1.95
2017-12-10T11:24:33.626Z,3.53
2017-12-10T11:27:05.395Z,1.80
2017-12-10T11:29:37.189Z,1.90
2017-12-10T11:32:05.084Z,3.75
2017-12-10T11:34:32.890Z,2.28
2017-12-10T11:37:02.013Z,1.90
2017-12-10T11:39:29.761Z,2.30
2017-12-10T11:41:57.552Z,2.40
2017-12-10T11:44:25.255Z,4.00
2017-12-10T11:46:52.949Z,2.58
2017-12-10T11:49:23.003Z,2.50
2017-12-10T11:51:55.800Z,4.30
2017-12-10T11:54:26.049Z,2.25
2017-12-10T11:56:53.635Z,3.60
2017-12-10T11:59:21.110Z,3.55
2017-12-10T12:01:49.450Z,4.72
2017-12-10T12:04:16.944Z,6.28
2017-12-10T12:06:45.390Z,4.72
2017-12-10T12:09:13.001Z,6.00
2017-12-10T12:11:41.333Z,7.45
2017-12-10T12:14:08.962Z,6.47
2017-12-10T12:16:37.227Z,12.15
2017-12-10T12:19:04.998Z,18.30
2017-12-10T12:21:33.337Z,13.30
2017-12-10T12:24:01.095Z,13.23
2017-12-10T12:26:28.611Z,13.90
2017-12-10T12:28:56.098Z,13.82
2017-12-10T12:31:23.578Z,11.57
2017-12-10T12:33:51.082Z,20.67
2017-12-10T12:36:18.573Z,12.80
2017-12-10T12:38:46.066Z,9.27
2017-12-10T12:41:14.338Z,12.95
2017-12-10T12:43:41.818Z,27.98
2017-12-10T12:46:10.166Z,13.73
2017-12-10T12:48:37.674Z,18.92
2017-12-10T12:51:05.159Z,16.30
2017-12-10T12:53:32.774Z,27.50
2017-12-10T12:56:00.302Z,14.57
2017-12-10T12:58:27.800Z,21.77
2017-12-10T13:00:55.295Z,15.20
2017-12-10T13:03:23.888Z,20.58
2017-12-10T13:05:52.214Z,16.83
2017-12-10T13:08:19.764Z,19.05
2017-12-10T13:10:47.700Z,19.33
2017-12-10T13:13:15.219Z,12.45
2017-12-10T13:15:43.152Z,17.75
2017-12-10T13:18:12.382Z,23.05
2017-12-10T13:20:39.953Z,25.45
2017-12-10T13:23:07.454Z,26.60
2017-12-10T13:25:35.748Z,31.00
2017-12-10T13:28:03.390Z,18.20
2017-12-10T13:30:31.350Z,23.83
2017-12-10T13:32:58.867Z,24.83
2017-12-10T13:35:26.361Z,20.75
2017-12-10T13:37:54.648Z,17.87
2017-12-10T13:40:22.133Z,24.83
2017-12-10T13:42:50.439Z,23.62
2017-12-10T13:45:18.177Z,29.58
2017-12-10T13:47:45.729Z,37.45
2017-12-10T13:50:14.302Z,28.12
2017-12-10T13:52:41.823Z,31.37
2017-12-10T13:55:09.322Z,24.20
2017-12-10T13:57:39.482Z,49.20
2017-12-10T14:00:07.024Z,33.38
2017-12-10T14:02:34.525Z,29.25
2017-12-10T14:05:02.035Z,41.63
2017-12-10T14:07:29.530Z,28.10
2017-12-10T14:09:57.022Z,32.67
2017-12-10T14:12:24.554Z,29.52
2017-12-10T14:14:52.118Z,28.12
2017-12-10T14:17:19.594Z,41.92
2017-12-10T14:19:47.076Z,35.80
2017-12-10T14:22:15.341Z,31.12
2017-12-10T14:24:43.644Z,31.05
2017-12-10T14:27:11.198Z,21.70
2017-12-10T14:29:39.451Z,37.63
2017-12-10T14:32:06.986Z,28.83
2017-12-10T14:34:34.471Z,22.73
2017-12-10T14:37:02.729Z,35.15
2017-12-10T14:39:30.278Z,32.25
2017-12-10T14:41:57.766Z,27.25
2017-12-10T14:44:26.023Z,30.10
2017-12-10T14:46:53.565Z,28.92
2017-12-10T14:49:21.107Z,30.50
2017-12-10T14:51:49.322Z,30.90
2017-12-10T14:54:16.844Z,37.22
2017-12-10T14:56:44.522Z,39.30
2017-12-10T14:59:12.103Z,31.45
2017-12-10T15:01:39.634Z,32.85
2017-12-10T15:04:07.130Z,36.65
2017-12-10T15:06:34.606Z,30.40
2017-12-10T15:09:02.922Z,21.12
2017-12-10T15:11:30.405Z,33.65
2017-12-10T15:13:57.910Z,30.67
2017-12-10T15:16:25.647Z,29.10
2017-12-10T15:18:53.186Z,26.83
2017-12-10T15:21:20.787Z,34.80
2017-12-10T15:23:48.466Z,23.70
2017-12-10T15:26:15.954Z,18.77
2017-12-10T15:28:43.506Z,31.05
2017-12-10T15:31:11.134Z,23.95
2017-12-10T15:33:38.607Z,32.05
2017-12-10T15:36:06.102Z,28.27
2017-12-10T15:38:33.626Z,24.48
2017-12-10T15:41:01.658Z,22.23
2017-12-10T15:43:29.215Z,25.23
2017-12-10T15:45:56.708Z,23.42
2017-12-10T15:48:24.211Z,36.97
2017-12-10T15:50:51.892Z,23.52
2017-12-10T15:53:19.434Z,24.98
2017-12-10T15:55:46.941Z,21.73
2017-12-10T15:58:14.426Z,30.58
2017-12-10T16:00:42.443Z,27.92
2017-12-10T16:03:10.009Z,27.87
2017-12-10T16:05:37.750Z,34.10
2017-12-10T16:08:05.385Z,30.20
2017-12-10T16:10:32.909Z,19.60
2017-12-10T16:13:04.535Z,10.60
2017-12-10T16:15:34.006Z,17.35
2017-12-10T16:18:02.506Z,14.02
2017-12-10T16:20:30.030Z,15.32
2017-12-10T16:22:58.729Z,11.43
2017-12-10T16:25:26.218Z,19.65
2017-12-10T16:27:53.745Z,26.62
2017-12-10T16:30:21.227Z,23.58
2017-12-10T16:32:48.722Z,22.83
2017-12-10T16:35:16.999Z,17.52
2017-12-10T16:37:44.486Z,14.95
2017-12-10T16:40:12.086Z,9.68
2017-12-10T16:42:39.586Z,19.42
2017-12-10T16:45:07.190Z,23.00
2017-12-10T16:47:34.670Z,13.30
2017-12-10T16:50:02.205Z,25.65
2017-12-10T16:52:29.714Z,13.48
2017-12-10T16:54:57.977Z,14.20
2017-12-10T16:57:26.268Z,19.50
2017-12-10T16:59:53.778Z,9.35
2017-12-10T17:02:22.752Z,13.77
2017-12-10T17:04:50.242Z,10.50
2017-12-10T17:07:17.741Z,6.57
2017-12-10T17:09:45.261Z,9.82
2017-12-10T17:12:13.258Z,9.23
2017-12-10T17:14:40.798Z,17.05
2017-12-10T17:17:08.390Z,10.45
2017-12-10T17:19:35.886Z,15.07
2017-12-10T17:22:03.462Z,11.48
2017-12-10T17:24:31.000Z,21.90
2017-12-10T17:26:58.477Z,10.32
2017-12-10T17:29:26.000Z,18.60
2017-12-10T17:31:54.315Z,17.23
2017-12-10T17:34:21.798Z,22.48
2017-12-10T17:36:50.809Z,8.63
2017-12-10T17:39:18.295Z,19.85
2017-12-10T17:41:45.783Z,20.58
2017-12-10T17:44:14.030Z,13.65
2017-12-10T17:46:41.546Z,15.63
2017-12-10T17:49:10.467Z,18.30
2017-12-10T17:51:37.950Z,13.90
2017-12-10T17:54:05.438Z,15.93
2017-12-10T17:56:33.543Z,9.45
2017-12-10T17:59:03.060Z,10.65
2017-12-10T18:01:30.543Z,9.63
2017-12-10T18:03:58.938Z,10.02
2017-12-10T18:06:26.421Z,8.70
2017-12-10T18:08:54.670Z,8.77
2017-12-10T18:11:22.177Z,10.30
2017-12-10T18:13:49.662Z,4.70
2017-12-10T18:16:17.140Z,10.00
2017-12-10T18:18:44.879Z,6.28
2017-12-10T18:21:12.398Z,7.68
2017-12-10T18:23:40.235Z,10.60
2017-12-10T18:26:07.833Z,10.07
2017-12-10T18:28:35.322Z,10.80
2017-12-10T18:31:02.881Z,2.78
2017-12-10T18:33:30.386Z,5.57
2017-12-10T18:35:57.984Z,4.30
2017-12-10T18:38:26.219Z,3.78
2017-12-10T18:40:54.683Z,3.37
2017-12-10T18:43:22.186Z,3.03
2017-12-10T18:45:50.552Z,2.67
2017-12-10T18:48:18.111Z,1.65
2017-12-10T18:50:46.390Z,4.32
2017-12-10T18:53:14.758Z,2.97
2017-12-10T18:55:43.042Z,6.15
2017-12-10T18:58:11.322Z,2.53
2017-12-10T19:00:38.846Z,6.00
2017-12-10T19:03:07.158Z,3.75
2017-12-10T19:05:34.662Z,3.17
2017-12-10T19:08:02.208Z,5.18
2017-12-10T19:10:29.726Z,4.22
2017-12-10T19:12:58.006Z,4.32
2017-12-10T19:15:26.286Z,4.68
2017-12-10T19:17:54.558Z,4.00
2017-12-10T19:20:22.830Z,4.32
2017-12-10T19:22:51.110Z,7.82
2017-12-10T19:25:19.470Z,3.05
2017-12-10T19:27:47.742Z,5.87
2017-12-10T19:30:15.234Z,4.20
2017-12-10T19:32:43.882Z,3.55
2017-12-10T19:35:11.475Z,3.67
2017-12-10T19:37:38.971Z,2.92
2017-12-10T19:40:06.455Z,3.80
2017-12-10T19:42:34.050Z,3.33
2017-12-10T19:45:02.299Z,2.97
2017-12-10T19:47:29.783Z,2.87
2017-12-10T19:49:58.058Z,2.58
2017-12-10T19:52:26.314Z,3.20
2017-12-10T19:54:53.877Z,3.20
2017-12-10T19:57:21.378Z,3.10
2017-12-10T19:59:48.861Z,3.20
2017-12-10T20:02:16.382Z,3.25
2017-12-10T20:04:44.138Z,3.72
2017-12-10T20:07:11.698Z,3.72
2017-12-10T20:09:39.216Z,4.05
2017-12-10T20:12:06.725Z,2.87
2017-12-10T20:14:34.213Z,3.33
2017-12-10T20:17:01.715Z,3.67
2017-12-10T20:19:29.983Z,3.05
2017-12-10T20:21:59.060Z,3.95
2017-12-10T20:24:26.618Z,3.40
2017-12-10T20:26:56.148Z,4.20
2017-12-10T20:29:23.662Z,3.70
2017-12-10T20:31:51.155Z,3.67
2017-12-10T20:34:18.662Z,6.55
2017-12-10T20:36:46.535Z,4.20
2017-12-10T20:39:14.491Z,4.30
2017-12-10T20:41:42.811Z,3.83
2017-12-10T20:44:10.294Z,7.37
2017-12-10T20:46:37.775Z,4.20
2017-12-10T20:49:06.092Z,3.97
2017-12-10T20:51:34.446Z,3.97
2017-12-10T20:54:01.917Z,5.87
2017-12-10T20:56:29.401Z,4.68
2017-12-10T20:58:56.914Z,5.10
2017-12-10T21:01:24.413Z,5.78
2017-12-10T21:03:52.082Z,7.90
2017-12-10T21:06:20.966Z,5.47
2017-12-10T21:08:49.830Z,4.85
2017-12-10T21:11:17.315Z,6.00
2017-12-10T21:13:44.838Z,6.07
2017-12-10T21:16:12.317Z,5.43
2017-12-10T21:18:39.789Z,5.05
2017-12-10T21:21:07.311Z,7.22
2017-12-10T21:23:34.813Z,6.70
2017-12-10T21:26:02.359Z,6.45
2017-12-10T21:28:29.851Z,6.72
2017-12-10T21:30:57.354Z,5.95
2017-12-10T21:33:24.848Z,8.25
2017-12-10T21:35:52.323Z,6.15
2017-12-10T21:38:20.607Z,7.40
2017-12-10T21:40:48.854Z,7.00
2017-12-10T21:43:16.465Z,5.60
2017-12-10T21:45:44.174Z,6.93
2017-12-10T21:48:11.695Z,6.47
2017-12-10T21:50:39.222Z,7.65
2017-12-10T21:53:07.474Z,5.68
2017-12-10T21:55:34.952Z,6.70
2017-12-10T21:58:03.250Z,8.07
2017-12-10T22:00:30.733Z,6.62
2017-12-10T22:02:58.428Z,7.95
2017-12-10T22:05:25.946Z,7.82
2017-12-10T22:07:53.457Z,7.87
2017-12-10T22:10:20.934Z,8.07
2017-12-10T22:12:50.509Z,7.78
2017-12-10T22:15:18.802Z,8.57
2017-12-10T22:17:46.318Z,8.15
2017-12-10T22:20:13.804Z,9.43
2017-12-10T22:22:41.306Z,7.65
2017-12-10T22:25:08.785Z,8.87
2017-12-10T22:27:36.376Z,7.60
2017-12-10T22:30:03.951Z,14.15
2017-12-10T22:32:31.421Z,9.87
2017-12-10T22:34:59.246Z,8.63
2017-12-10T22:37:26.810Z,9.23
2017-12-10T22:39:54.317Z,8.80
2017-12-10T22:42:21.814Z,8.13
2017-12-10T22:44:49.338Z,10.55
2017-12-10T22:47:16.818Z,10.25
2017-12-10T22:49:45.321Z,7.28
2017-12-10T22:52:12.796Z,7.47
2017-12-10T22:54:40.717Z,8.00
2017-12-10T22:57:08.296Z,8.05
2017-12-10T22:59:35.770Z,7.80
2017-12-10T23:02:03.369Z,8.48
2017-12-10T23:04:31.651Z,8.25
2017-12-10T23:06:59.899Z,8.40
2017-12-10T23:09:27.770Z,10.02
2017-12-10T23:11:55.305Z,10.02
2017-12-10T23:14:23.552Z,8.32
2017-12-10T23:16:51.026Z,9.63
2017-12-10T23:19:18.530Z,8.27
2017-12-10T23:21:46.802Z,8.85
2017-12-10T23:24:14.278Z,8.70
2017-12-10T23:26:42.562Z,7.90
2017-12-10T23:29:10.364Z,8.43
2017-12-10T23:31:37.857Z,8.02
2017-12-10T23:34:05.357Z,8.13
2017-12-10T23:36:33.066Z,8.60
2017-12-10T23:39:00.604Z,8.70
2017-12-10T23:41:28.311Z,8.57
2017-12-10T23:43:56.551Z,8.35
2017-12-10T23:46:24.066Z,9.05
2017-12-10T23:48:52.725Z,9.18
2017-12-10T23:51:20.262Z,9.85
2017-12-10T23:53:47.743Z,9.15
2017-12-10T23:56:15.246Z,9.93
2017-12-10T23:58:42.725Z,9.25
